createdAt,value
2023-09-30T00:00:10.092Z,1.90
2023-09-30T00:02:37.140Z,1.88
2023-09-30T00:05:13.486Z,1.50
2023-09-30T00:07:39.860Z,2.28
2023-09-30T00:10:07.062Z,2.00
2023-09-30T00:12:33.610Z,1.48
2023-09-30T00:15:00.093Z,1.75
2023-09-30T00:17:26.535Z,1.60
2023-09-30T00:19:52.956Z,1.80
2023-09-30T00:22:19.434Z,1.75
2023-09-30T00:24:46.135Z,1.55
2023-09-30T00:27:12.594Z,1.98
2023-09-30T00:29:39.073Z,1.67
2023-09-30T00:32:05.569Z,1.60
2023-09-30T00:34:36.192Z,1.48
2023-09-30T00:37:02.936Z,2.00
2023-09-30T00:39:35.136Z,1.77
2023-09-30T00:42:01.600Z,1.73
2023-09-30T00:44:28.066Z,1.35
2023-09-30T00:46:58.609Z,1.95
2023-09-30T00:49:26.106Z,1.58
2023-09-30T00:51:53.595Z,2.05
2023-09-30T00:54:21.626Z,1.55
2023-09-30T00:56:49.896Z,1.77
2023-09-30T00:59:17.478Z,1.75
2023-09-30T01:01:45.292Z,1.88
2023-09-30T01:04:16.124Z,1.58
2023-09-30T01:06:43.146Z,1.80
2023-09-30T01:09:10.162Z,1.90
2023-09-30T01:11:36.758Z,1.92
2023-09-30T01:14:03.156Z,1.38
2023-09-30T01:16:29.622Z,2.22
2023-09-30T01:18:56.110Z,1.80
2023-09-30T01:21:24.893Z,1.75
2023-09-30T01:23:53.230Z,1.67
2023-09-30T01:26:26.008Z,1.70
2023-09-30T01:28:52.588Z,1.63
2023-09-30T01:31:19.069Z,1.40
2023-09-30T01:33:45.647Z,1.90
2023-09-30T01:36:12.245Z,2.15
2023-09-30T01:38:38.699Z,1.95
2023-09-30T01:41:05.119Z,2.40
2023-09-30T01:43:31.606Z,1.75
2023-09-30T01:45:59.147Z,2.40
2023-09-30T01:48:25.652Z,1.95
2023-09-30T01:50:52.048Z,1.58
2023-09-30T01:53:18.592Z,1.88
2023-09-30T01:55:45.617Z,1.90
2023-09-30T01:58:12.233Z,1.90
2023-09-30T02:00:39.136Z,1.90
2023-09-30T02:03:05.837Z,2.20
2023-09-30T02:05:32.492Z,2.00
2023-09-30T02:07:58.913Z,2.35
2023-09-30T02:10:25.387Z,2.38
2023-09-30T02:12:51.894Z,1.67
2023-09-30T02:15:18.720Z,2.63
2023-09-30T02:17:47.363Z,2.30
2023-09-30T02:20:16.922Z,1.75
2023-09-30T02:22:44.622Z,2.72
2023-09-30T02:25:13.718Z,2.53
2023-09-30T02:27:42.591Z,2.38
2023-09-30T02:30:11.660Z,2.63
2023-09-30T02:32:41.884Z,2.72
2023-09-30T02:35:11.897Z,2.72
2023-09-30T02:37:38.601Z,2.15
2023-09-30T02:40:10.246Z,2.22
2023-09-30T02:42:40.582Z,2.25
2023-09-30T02:45:10.789Z,2.45
2023-09-30T02:47:38.521Z,2.47
2023-09-30T02:50:09.467Z,2.08
2023-09-30T02:52:36.008Z,2.55
2023-09-30T02:55:03.972Z,2.90
2023-09-30T02:57:30.755Z,1.90
2023-09-30T02:59:57.637Z,2.38
2023-09-30T03:02:27.562Z,2.47
2023-09-30T03:04:54.059Z,2.72
2023-09-30T03:07:21.345Z,2.40
2023-09-30T03:09:48.185Z,2.30
2023-09-30T03:12:15.082Z,2.97
2023-09-30T03:14:41.729Z,2.70
2023-09-30T03:17:12.531Z,2.47
2023-09-30T03:19:39.800Z,2.95
2023-09-30T03:22:06.723Z,2.85
2023-09-30T03:24:33.279Z,3.03
2023-09-30T03:26:59.773Z,2.63
2023-09-30T03:29:27.526Z,3.05
2023-09-30T03:31:53.994Z,2.92
2023-09-30T03:34:21.412Z,2.35
2023-09-30T03:36:47.988Z,3.20
2023-09-30T03:39:16.585Z,2.95
2023-09-30T03:41:43.093Z,2.70
2023-09-30T03:44:12.571Z,3.42
2023-09-30T03:46:39.167Z,2.78
2023-09-30T03:49:05.707Z,3.00
2023-09-30T03:51:32.146Z,2.60
2023-09-30T03:54:01.607Z,2.88
2023-09-30T03:56:28.246Z,2.20
2023-09-30T03:58:54.860Z,3.05
2023-09-30T04:01:21.368Z,2.95
2023-09-30T04:03:48.105Z,3.00
2023-09-30T04:06:14.788Z,2.80
2023-09-30T04:08:41.557Z,2.80
2023-09-30T04:11:07.980Z,3.50
2023-09-30T04:13:34.479Z,2.80
2023-09-30T04:16:01.193Z,2.63
2023-09-30T04:18:28.320Z,3.15
2023-09-30T04:20:55.035Z,3.20
2023-09-30T04:23:21.683Z,2.60
2023-09-30T04:25:48.798Z,3.47
2023-09-30T04:28:15.291Z,3.17
2023-09-30T04:30:42.290Z,2.90
2023-09-30T04:33:09.228Z,3.42
2023-09-30T04:35:36.666Z,3.42
2023-09-30T04:38:05.152Z,3.00
2023-09-30T04:40:31.645Z,3.63
2023-09-30T04:43:00.774Z,3.22
2023-09-30T04:47:54.636Z,3.40
2023-09-30T04:50:23.043Z,3.53
2023-09-30T04:52:50.259Z,2.92
2023-09-30T04:55:17.810Z,2.65
2023-09-30T04:57:46.016Z,2.85
2023-09-30T05:00:14.528Z,3.08
2023-09-30T05:02:41.819Z,3.25
2023-09-30T05:05:09.260Z,3.75
2023-09-30T05:07:35.676Z,3.33
2023-09-30T05:10:05.987Z,2.95
2023-09-30T05:12:34.116Z,3.35
2023-09-30T05:15:00.911Z,3.38
2023-09-30T05:17:27.726Z,2.92
2023-09-30T05:19:54.631Z,3.25
2023-09-30T05:22:24.748Z,3.20
2023-09-30T05:24:55.227Z,3.33
2023-09-30T05:27:22.306Z,3.22
2023-09-30T05:29:49.878Z,3.38
2023-09-30T05:32:16.791Z,2.95
2023-09-30T05:34:46.524Z,2.50
2023-09-30T05:37:13.570Z,2.70
2023-09-30T05:39:40.421Z,2.30
2023-09-30T05:42:07.945Z,2.75
2023-09-30T05:44:34.471Z,3.17
2023-09-30T05:47:01.130Z,3.40
2023-09-30T05:49:28.186Z,2.97
2023-09-30T05:51:56.207Z,2.58
2023-09-30T05:54:25.955Z,2.83
2023-09-30T05:56:52.424Z,2.78
2023-09-30T05:59:18.994Z,2.95
2023-09-30T06:01:47.322Z,2.70
2023-09-30T06:04:14.093Z,2.67
2023-09-30T06:06:41.868Z,2.47
2023-09-30T06:09:09.316Z,2.92
2023-09-30T06:11:37.280Z,3.13
2023-09-30T06:14:03.963Z,3.28
2023-09-30T06:16:32.954Z,2.95
2023-09-30T06:19:03.201Z,3.00
2023-09-30T06:21:30.685Z,3.38
2023-09-30T06:23:57.385Z,2.08
2023-09-30T06:26:28.664Z,3.17
2023-09-30T06:28:55.710Z,2.85
2023-09-30T06:31:30.235Z,4.05
2023-09-30T06:33:59.506Z,3.33
2023-09-30T06:36:26.171Z,3.08
2023-09-30T06:38:53.290Z,2.78
2023-09-30T06:41:20.012Z,3.22
2023-09-30T06:43:47.664Z,2.78
2023-09-30T06:46:14.303Z,2.80
2023-09-30T06:48:51.122Z,3.40
2023-09-30T06:51:18.404Z,2.58
2023-09-30T06:53:46.835Z,2.83
2023-09-30T06:56:16.713Z,3.30
2023-09-30T06:58:43.197Z,2.63
2023-09-30T07:01:09.926Z,3.35
2023-09-30T07:03:36.405Z,3.53
2023-09-30T07:06:02.964Z,3.00
2023-09-30T07:08:30.957Z,3.15
2023-09-30T07:10:57.848Z,3.67
2023-09-30T07:13:24.643Z,3.00
2023-09-30T07:15:51.697Z,3.08
2023-09-30T07:18:19.229Z,3.40
2023-09-30T07:20:45.919Z,2.92
2023-09-30T07:23:19.822Z,2.90
2023-09-30T07:25:48.305Z,3.03
2023-09-30T07:28:14.752Z,2.78
2023-09-30T07:30:41.602Z,2.63
2023-09-30T07:33:08.581Z,3.22
2023-09-30T07:35:35.498Z,2.53
2023-09-30T07:38:02.600Z,2.10
2023-09-30T07:40:29.185Z,2.15
2023-09-30T07:42:58.053Z,2.38
2023-09-30T07:47:52.266Z,2.45
2023-09-30T07:50:20.146Z,2.72
2023-09-30T07:52:47.123Z,2.30
2023-09-30T07:55:14.024Z,2.55
2023-09-30T07:57:43.313Z,2.10
2023-09-30T08:00:13.583Z,2.60
2023-09-30T08:02:40.341Z,1.83
2023-09-30T08:05:07.803Z,1.92
2023-09-30T08:07:34.918Z,2.08
2023-09-30T08:10:01.894Z,1.73
2023-09-30T08:12:28.502Z,1.92
2023-09-30T08:14:55.158Z,2.05
2023-09-30T08:17:21.611Z,1.65
2023-09-30T08:19:48.958Z,1.77
2023-09-30T08:22:15.675Z,2.10
2023-09-30T08:24:42.320Z,1.95
2023-09-30T08:27:08.748Z,1.88
2023-09-30T08:29:38.480Z,2.25
2023-09-30T08:32:05.325Z,1.95
2023-09-30T08:34:31.867Z,2.03
2023-09-30T08:36:58.498Z,1.42
2023-09-30T08:39:25.365Z,1.70
2023-09-30T08:41:57.006Z,2.38
2023-09-30T08:44:24.045Z,2.30
2023-09-30T08:46:54.862Z,1.80
2023-09-30T08:49:22.504Z,1.83
2023-09-30T08:51:50.838Z,1.95
2023-09-30T08:54:17.954Z,1.83
2023-09-30T08:56:48.442Z,2.10
2023-09-30T08:59:17.986Z,1.60
2023-09-30T09:01:44.771Z,1.50
2023-09-30T09:04:11.850Z,1.88
2023-09-30T09:06:38.631Z,1.42
2023-09-30T09:09:18.946Z,1.30
2023-09-30T09:11:48.176Z,1.70
2023-09-30T09:14:15.618Z,1.48
2023-09-30T09:16:56.210Z,1.67
2023-09-30T09:19:22.806Z,1.30
2023-09-30T09:22:03.454Z,1.88
2023-09-30T09:24:37.407Z,1.73
2023-09-30T09:27:18.565Z,1.90
2023-09-30T09:29:46.643Z,1.45
2023-09-30T09:32:14.998Z,1.92
2023-09-30T09:34:44.092Z,1.88
2023-09-30T09:37:23.633Z,1.58
2023-09-30T09:39:51.452Z,1.90
2023-09-30T09:42:38.046Z,2.10
2023-09-30T09:45:06.781Z,1.92
2023-09-30T09:50:04.999Z,2.47
2023-09-30T09:52:34.474Z,3.03
2023-09-30T09:55:02.242Z,2.28
2023-09-30T09:57:30.324Z,2.40
2023-09-30T09:59:59.818Z,1.80
2023-09-30T10:02:29.465Z,2.60
2023-09-30T10:04:57.287Z,1.77
2023-09-30T10:07:29.275Z,2.20
2023-09-30T10:09:59.069Z,2.92
2023-09-30T10:12:27.035Z,2.35
2023-09-30T10:14:53.858Z,2.60
2023-09-30T10:17:41.410Z,3.10
2023-09-30T10:20:08.601Z,1.90
2023-09-30T10:22:35.255Z,1.80
2023-09-30T10:25:50.927Z,2.22
2023-09-30T10:28:38.120Z,1.60
2023-09-30T10:31:22.768Z,2.17
2023-09-30T10:34:01.796Z,2.13
2023-09-30T10:36:30.152Z,2.30
2023-09-30T10:38:57.430Z,1.83
2023-09-30T10:41:47.052Z,2.20
2023-09-30T10:44:30.711Z,2.13
2023-09-30T10:46:59.604Z,2.45
2023-09-30T10:49:28.896Z,2.40
2023-09-30T10:51:57.475Z,2.35
2023-09-30T10:56:55.918Z,2.20
2023-09-30T10:59:31.818Z,2.28
2023-09-30T11:01:58.991Z,2.40
2023-09-30T11:04:28.446Z,2.60
2023-09-30T11:06:55.537Z,2.60
2023-09-30T11:09:24.046Z,2.00
2023-09-30T11:11:53.479Z,2.40
2023-09-30T11:14:30.262Z,2.40
2023-09-30T11:17:05.027Z,2.15
2023-09-30T11:19:47.052Z,2.60
2023-09-30T11:22:14.424Z,2.10
2023-09-30T11:24:40.863Z,5.75
2023-09-30T11:27:10.491Z,1.90
2023-09-30T11:29:37.311Z,2.45
2023-09-30T11:32:07.786Z,3.17
2023-09-30T11:34:36.920Z,3.10
2023-09-30T11:37:04.273Z,2.95
2023-09-30T11:39:31.866Z,2.25
2023-09-30T11:42:00.008Z,2.80
2023-09-30T11:44:33.055Z,2.42
2023-09-30T11:47:06.078Z,2.42
2023-09-30T11:49:55.110Z,2.30
2023-09-30T11:52:28.464Z,2.55
2023-09-30T11:54:54.880Z,2.10
2023-09-30T11:57:22.399Z,2.42
2023-09-30T11:59:49.040Z,2.15
2023-09-30T12:02:18.110Z,2.65
2023-09-30T12:04:46.519Z,2.75
2023-09-30T12:07:13.429Z,3.00
2023-09-30T12:09:41.012Z,2.72
2023-09-30T12:12:12.851Z,2.65
2023-09-30T12:14:40.657Z,2.25
2023-09-30T12:17:07.332Z,2.20
2023-09-30T12:19:33.878Z,2.65
2023-09-30T12:22:03.503Z,2.08
2023-09-30T12:24:30.112Z,2.83
2023-09-30T12:26:56.592Z,2.63
2023-09-30T12:29:24.749Z,2.55
2023-09-30T12:31:56.028Z,2.03
2023-09-30T12:34:30.266Z,2.17
2023-09-30T12:37:00.429Z,2.90
2023-09-30T12:39:28.440Z,2.47
2023-09-30T12:41:55.327Z,2.28
2023-09-30T12:44:22.002Z,1.90
2023-09-30T12:46:48.674Z,2.38
2023-09-30T12:49:17.858Z,2.95
2023-09-30T12:51:44.746Z,2.65
2023-09-30T12:54:14.156Z,2.50
2023-09-30T12:56:40.878Z,2.08
2023-09-30T12:59:07.376Z,2.50
2023-09-30T13:01:35.513Z,3.22
2023-09-30T13:04:03.178Z,2.30
2023-09-30T13:06:31.094Z,3.00
2023-09-30T13:08:58.274Z,2.80
2023-09-30T13:11:24.895Z,2.15
2023-09-30T13:13:51.306Z,2.78
2023-09-30T13:16:17.856Z,3.17
2023-09-30T13:18:44.537Z,2.50
2023-09-30T13:21:20.367Z,2.45
2023-09-30T13:23:46.988Z,2.33
2023-09-30T13:26:14.089Z,2.20
2023-09-30T13:28:40.868Z,2.70
2023-09-30T13:31:08.316Z,2.22
2023-09-30T13:33:35.097Z,2.50
2023-09-30T13:36:03.445Z,2.28
2023-09-30T13:38:29.986Z,2.58
2023-09-30T13:40:56.558Z,2.35
2023-09-30T13:43:23.109Z,2.42
2023-09-30T13:45:52.224Z,2.13
2023-09-30T13:48:18.781Z,1.75
2023-09-30T13:50:45.317Z,2.40
2023-09-30T13:53:12.876Z,2.38
2023-09-30T13:55:46.164Z,2.25
2023-09-30T13:58:20.005Z,2.92
2023-09-30T14:00:49.578Z,2.92
2023-09-30T14:03:16.250Z,2.60
2023-09-30T14:05:47.993Z,2.33
2023-09-30T14:08:14.918Z,2.33
2023-09-30T14:10:41.587Z,1.83
2023-09-30T14:13:22.537Z,2.10
2023-09-30T14:15:49.124Z,2.17
2023-09-30T14:18:16.184Z,2.17
2023-09-30T14:20:43.059Z,2.33
2023-09-30T14:23:09.518Z,2.45
2023-09-30T14:25:36.006Z,2.17
2023-09-30T14:28:02.542Z,2.33
2023-09-30T14:30:29.460Z,2.72
2023-09-30T14:32:58.756Z,1.65
2023-09-30T14:35:28.144Z,2.30
2023-09-30T14:37:55.686Z,2.10
2023-09-30T14:40:22.582Z,2.05
2023-09-30T14:42:49.136Z,2.00
2023-09-30T14:45:15.813Z,2.70
2023-09-30T14:47:42.323Z,2.40
2023-09-30T14:50:11.435Z,2.13
2023-09-30T14:52:38.024Z,2.28
2023-09-30T14:55:05.166Z,2.40
2023-09-30T14:57:31.664Z,3.15
2023-09-30T15:00:00.317Z,2.40
2023-09-30T15:02:27.361Z,2.55
2023-09-30T15:04:56.421Z,2.00
2023-09-30T15:07:27.649Z,2.25
2023-09-30T15:09:55.473Z,2.15
2023-09-30T15:12:22.026Z,2.20
2023-09-30T15:14:48.437Z,2.67
2023-09-30T15:17:14.939Z,2.53
2023-09-30T15:19:44.265Z,2.30
2023-09-30T15:22:12.705Z,2.20
2023-09-30T15:24:40.573Z,2.05
2023-09-30T15:27:07.171Z,2.08
2023-09-30T15:29:33.982Z,2.38
2023-09-30T15:32:00.608Z,2.47
2023-09-30T15:34:27.050Z,2.28
2023-09-30T15:36:53.546Z,2.78
2023-09-30T15:39:19.974Z,2.33
2023-09-30T15:41:49.009Z,2.30
2023-09-30T15:44:18.815Z,2.28
2023-09-30T15:46:45.578Z,2.70
2023-09-30T15:49:12.041Z,2.78
2023-09-30T15:51:38.500Z,2.78
2023-09-30T15:54:05.268Z,2.72
2023-09-30T15:56:38.638Z,2.95
2023-09-30T15:59:12.097Z,2.80
2023-09-30T16:01:38.741Z,2.78
2023-09-30T16:04:05.861Z,2.55
2023-09-30T16:06:33.751Z,2.35
2023-09-30T16:09:00.258Z,2.80
2023-09-30T16:11:29.780Z,2.17
2023-09-30T16:13:56.567Z,2.42
2023-09-30T16:16:23.393Z,2.42
2023-09-30T16:18:51.242Z,2.70
2023-09-30T16:21:17.939Z,1.90
2023-09-30T16:23:44.372Z,1.75
2023-09-30T16:26:17.009Z,2.88
2023-09-30T16:28:43.490Z,2.83
2023-09-30T16:31:10.060Z,2.10
2023-09-30T16:33:37.154Z,3.00
2023-09-30T16:36:07.034Z,2.83
2023-09-30T16:38:35.601Z,2.33
2023-09-30T16:41:03.750Z,2.47
2023-09-30T16:43:30.483Z,2.45
2023-09-30T16:46:03.421Z,2.53
2023-09-30T16:48:30.021Z,2.35
2023-09-30T16:50:56.611Z,3.10
2023-09-30T16:53:23.690Z,2.67
2023-09-30T16:55:51.587Z,2.63
2023-09-30T16:58:18.595Z,2.05
2023-09-30T17:00:47.828Z,1.90
2023-09-30T17:03:14.517Z,2.45
2023-09-30T17:05:42.734Z,2.40
2023-09-30T17:08:12.960Z,2.92
2023-09-30T17:10:42.355Z,2.55
2023-09-30T17:13:08.859Z,3.40
2023-09-30T17:15:36.843Z,2.83
2023-09-30T17:18:04.683Z,2.72
2023-09-30T17:20:32.588Z,2.47
2023-09-30T17:22:59.057Z,3.10
2023-09-30T17:25:27.175Z,2.65
2023-09-30T17:27:53.755Z,2.70
2023-09-30T17:30:38.289Z,2.78
2023-09-30T17:33:06.990Z,2.80
2023-09-30T17:35:38.217Z,2.60
2023-09-30T17:38:04.708Z,2.60
2023-09-30T17:40:31.055Z,3.00
2023-09-30T17:42:57.435Z,2.80
2023-09-30T17:45:25.262Z,3.00
2023-09-30T17:47:51.615Z,2.95
2023-09-30T17:50:18.280Z,2.05
2023-09-30T17:52:44.764Z,2.97
2023-09-30T17:55:11.198Z,2.40
2023-09-30T17:57:37.784Z,2.55
2023-09-30T18:00:04.904Z,2.08
2023-09-30T18:02:32.619Z,2.92
2023-09-30T18:04:59.156Z,2.70
2023-09-30T18:07:26.394Z,2.92
2023-09-30T18:09:53.157Z,2.30
2023-09-30T18:12:19.531Z,2.35
2023-09-30T18:14:46.052Z,2.47
2023-09-30T18:17:12.507Z,2.38
2023-09-30T18:19:41.650Z,3.15
2023-09-30T18:24:37.609Z,2.35
2023-09-30T18:27:07.030Z,2.67
2023-09-30T18:29:33.794Z,2.92
2023-09-30T18:32:04.171Z,3.00
2023-09-30T18:34:32.713Z,2.97
2023-09-30T18:36:59.431Z,3.60
2023-09-30T18:39:28.684Z,2.72
2023-09-30T18:41:55.352Z,2.75
2023-09-30T18:44:21.824Z,2.50
2023-09-30T18:46:52.375Z,3.55
2023-09-30T18:49:19.700Z,2.85
2023-09-30T18:51:46.627Z,2.60
2023-09-30T18:54:13.338Z,3.33
2023-09-30T18:56:39.789Z,2.92
2023-09-30T18:59:21.693Z,2.72
2023-09-30T19:01:51.005Z,3.20
2023-09-30T19:06:46.446Z,3.38
2023-09-30T19:09:13.442Z,3.33
2023-09-30T19:11:41.969Z,3.70
2023-09-30T19:14:08.485Z,4.18
2023-09-30T19:16:38.717Z,3.13
2023-09-30T19:19:06.388Z,2.75
2023-09-30T19:21:34.851Z,3.08
2023-09-30T19:24:02.332Z,3.10
2023-09-30T19:26:28.913Z,3.42
2023-09-30T19:29:00.072Z,3.30
2023-09-30T19:31:26.675Z,3.15
2023-09-30T19:33:54.975Z,3.05
2023-09-30T19:36:21.819Z,2.75
2023-09-30T19:38:49.898Z,3.03
2023-09-30T19:41:20.604Z,3.72
2023-09-30T19:43:47.117Z,2.50
2023-09-30T19:46:13.710Z,3.05
2023-09-30T19:48:43.356Z,3.15
2023-09-30T19:51:09.891Z,3.58
2023-09-30T19:53:36.773Z,3.05
2023-09-30T19:56:08.592Z,3.15
2023-09-30T19:58:35.350Z,2.70
2023-09-30T20:01:09.434Z,3.53
2023-09-30T20:03:37.205Z,3.45
2023-09-30T20:06:17.973Z,3.38
2023-09-30T20:08:45.893Z,3.05
2023-09-30T20:11:19.866Z,2.70
2023-09-30T20:13:47.123Z,3.97
2023-09-30T20:16:15.100Z,3.53
2023-09-30T20:18:41.780Z,3.30
2023-09-30T20:21:08.908Z,3.65
2023-09-30T20:23:35.771Z,3.30
2023-09-30T20:26:03.972Z,3.40
2023-09-30T20:28:33.232Z,2.92
2023-09-30T20:31:02.308Z,3.75
2023-09-30T20:35:55.527Z,3.00
2023-09-30T20:38:21.905Z,3.92
2023-09-30T20:40:49.278Z,3.40
2023-09-30T20:43:18.786Z,2.80
2023-09-30T20:45:45.179Z,3.20
2023-09-30T20:48:14.427Z,3.22
2023-09-30T20:53:08.173Z,3.28
2023-09-30T20:55:35.773Z,3.15
2023-09-30T20:58:02.586Z,3.63
2023-09-30T21:00:29.038Z,3.08
2023-09-30T21:02:58.288Z,3.83
2023-09-30T21:05:24.906Z,3.75
2023-09-30T21:07:53.865Z,3.70
2023-09-30T21:10:20.415Z,3.03
2023-09-30T21:12:49.253Z,3.58
2023-09-30T21:15:16.135Z,3.10
2023-09-30T21:17:46.332Z,3.42
2023-09-30T21:20:12.810Z,3.40
2023-09-30T21:22:40.008Z,3.08
2023-09-30T21:25:09.286Z,2.95
2023-09-30T21:27:38.958Z,3.50
2023-09-30T21:30:06.933Z,3.90
2023-09-30T21:32:33.345Z,3.55
2023-09-30T21:35:02.299Z,3.38
2023-09-30T21:37:31.182Z,3.65
2023-09-30T21:39:57.783Z,3.88
2023-09-30T21:42:27.766Z,4.05
2023-09-30T21:44:54.404Z,3.97
2023-09-30T21:47:20.913Z,4.88
2023-09-30T21:49:47.413Z,3.97
2023-09-30T21:52:13.881Z,3.53
2023-09-30T21:54:40.821Z,4.07
2023-09-30T21:57:07.364Z,3.92
2023-09-30T21:59:33.763Z,3.53
2023-09-30T22:02:03.851Z,3.58
2023-09-30T22:04:30.779Z,3.97
2023-09-30T22:06:58.256Z,4.25
2023-09-30T22:09:25.791Z,4.10
2023-09-30T22:11:53.226Z,3.33
2023-09-30T22:14:22.207Z,3.33
2023-09-30T22:16:48.945Z,3.50
2023-09-30T22:19:16.142Z,3.25
2023-09-30T22:21:42.568Z,3.15
2023-09-30T22:24:09.297Z,3.05
2023-09-30T22:26:35.872Z,3.90
2023-09-30T22:29:04.601Z,3.83
2023-09-30T22:31:32.857Z,3.75
2023-09-30T22:34:01.205Z,3.53
2023-09-30T22:36:40.349Z,3.58
2023-09-30T22:39:16.053Z,3.63
2023-09-30T22:41:43.673Z,3.80
2023-09-30T22:44:10.092Z,3.72
2023-09-30T22:46:36.741Z,3.78
2023-09-30T22:49:03.873Z,3.67
2023-09-30T22:51:32.973Z,3.58
2023-09-30T22:53:59.568Z,3.47
2023-09-30T22:56:26.059Z,3.80
2023-09-30T22:58:52.908Z,2.67
2023-09-30T23:01:23.871Z,3.13
2023-09-30T23:03:53.363Z,3.72
2023-09-30T23:06:23.734Z,3.58
2023-09-30T23:08:53.003Z,3.08
2023-09-30T23:13:50.380Z,3.22
2023-09-30T23:16:17.072Z,3.30
2023-09-30T23:18:44.095Z,2.85
2023-09-30T23:21:10.961Z,2.92
2023-09-30T23:23:37.602Z,3.55
2023-09-30T23:26:07.894Z,3.47
2023-09-30T23:28:38.877Z,3.33
2023-09-30T23:31:05.943Z,3.47
2023-09-30T23:33:34.559Z,3.50
2023-09-30T23:36:03.746Z,3.05
2023-09-30T23:38:31.390Z,3.60
2023-09-30T23:40:59.450Z,3.22
2023-09-30T23:43:26.881Z,3.42
2023-09-30T23:45:53.704Z,4.05
2023-09-30T23:48:21.205Z,3.70
2023-09-30T23:50:50.598Z,3.50
2023-09-30T23:55:44.477Z,3.13
2023-09-30T23:58:16.136Z,3.28
